createdAt,value
2023-02-14T00:01:13.371Z,0.40
2023-02-14T00:03:40.623Z,0.60
2023-02-14T00:06:13.332Z,0.60
2023-02-14T00:08:44.326Z,0.70
2023-02-14T00:11:13.023Z,0.63
2023-02-14T00:13:40.138Z,0.53
2023-02-14T00:16:07.340Z,0.60
2023-02-14T00:18:52.802Z,0.57
2023-02-14T00:21:19.754Z,0.77
2023-02-14T00:23:46.663Z,0.90
2023-02-14T00:26:15.467Z,0.60
2023-02-14T00:28:42.507Z,0.53
2023-02-14T00:31:09.788Z,0.50
2023-02-14T00:33:36.998Z,0.40
2023-02-14T00:36:07.278Z,0.60
2023-02-14T00:38:35.044Z,0.80
2023-02-14T00:41:02.533Z,0.63
2023-02-14T00:43:29.642Z,0.60
2023-02-14T00:45:56.672Z,0.70
2023-02-14T00:48:23.799Z,0.50
2023-02-14T00:50:50.783Z,0.60
2023-02-14T00:53:17.983Z,0.53
2023-02-14T00:55:46.728Z,0.60
2023-02-14T00:58:13.997Z,0.57
2023-02-14T01:00:41.229Z,0.60
2023-02-14T01:03:08.332Z,0.40
2023-02-14T01:05:35.338Z,0.50
2023-02-14T01:08:02.364Z,0.50
2023-02-14T01:10:29.415Z,0.50
2023-02-14T01:12:56.521Z,0.30
2023-02-14T01:15:23.645Z,0.40
2023-02-14T01:17:50.724Z,0.60
2023-02-14T01:20:17.725Z,0.50
2023-02-14T01:22:44.654Z,0.40
2023-02-14T01:25:11.638Z,0.40
2023-02-14T01:27:38.711Z,0.50
2023-02-14T01:30:06.705Z,0.60
2023-02-14T01:32:34.195Z,0.40
2023-02-14T01:35:01.806Z,0.60
2023-02-14T01:37:30.441Z,0.50
2023-02-14T01:39:57.435Z,0.43
2023-02-14T01:42:27.380Z,0.60
2023-02-14T01:45:16.102Z,0.47
2023-02-14T01:47:45.153Z,0.60
2023-02-14T01:50:25.565Z,0.60
2023-02-14T01:53:11.489Z,0.40
2023-02-14T01:55:42.588Z,0.50
2023-02-14T01:58:18.728Z,0.60
2023-02-14T02:00:58.604Z,0.50
2023-02-14T02:03:39.962Z,0.70
2023-02-14T02:06:21.663Z,0.63
2023-02-14T02:09:15.362Z,0.70
2023-02-14T02:11:42.961Z,0.47
2023-02-14T02:14:16.184Z,0.57
2023-02-14T02:16:49.377Z,0.40
2023-02-14T02:19:22.648Z,0.50
2023-02-14T02:22:00.009Z,0.47
2023-02-14T02:24:58.129Z,0.43
2023-02-14T02:28:06.420Z,0.40
2023-02-14T02:30:51.103Z,0.57
2023-02-14T02:33:54.363Z,0.40
2023-02-14T02:36:26.859Z,0.23
2023-02-14T02:38:59.340Z,0.30
2023-02-14T02:41:59.658Z,0.30
2023-02-14T02:44:45.018Z,0.30
2023-02-14T02:47:26.344Z,0.47
2023-02-14T02:50:17.077Z,0.40
2023-02-14T02:53:06.656Z,0.50
2023-02-14T02:55:57.840Z,0.30
2023-02-14T02:58:32.759Z,0.33
2023-02-14T03:01:03.663Z,0.50
2023-02-14T03:03:50.604Z,0.50
2023-02-14T03:06:17.686Z,0.63
2023-02-14T03:08:44.766Z,0.40
2023-02-14T03:11:13.366Z,0.43
2023-02-14T03:13:58.204Z,0.40
2023-02-14T03:16:30.412Z,0.40
2023-02-14T03:19:57.132Z,0.30
2023-02-14T03:22:57.649Z,0.40
2023-02-14T03:25:44.155Z,0.50
2023-02-14T03:28:38.228Z,0.30
2023-02-14T03:31:32.959Z,0.40
2023-02-14T03:34:21.257Z,0.43
2023-02-14T03:36:54.785Z,0.50
2023-02-14T03:39:26.785Z,0.50
2023-02-14T03:42:06.716Z,0.30
2023-02-14T03:44:36.390Z,0.40
2023-02-14T03:47:18.589Z,0.53
2023-02-14T03:49:51.151Z,0.50
2023-02-14T03:52:20.362Z,0.40
2023-02-14T03:54:53.076Z,0.37
2023-02-14T03:57:53.533Z,0.40
2023-02-14T04:00:21.007Z,0.23
2023-02-14T04:02:53.810Z,0.50
2023-02-14T04:05:25.271Z,0.60
2023-02-14T04:07:55.488Z,0.40
2023-02-14T04:10:23.664Z,0.40
2023-02-14T04:12:51.336Z,0.37
2023-02-14T04:15:18.900Z,0.40
2023-02-14T04:18:04.158Z,0.37
2023-02-14T04:20:31.165Z,0.30
2023-02-14T04:22:58.412Z,0.30
2023-02-14T04:25:25.689Z,0.33
2023-02-14T04:27:52.869Z,0.30
2023-02-14T04:30:21.772Z,0.40
2023-02-14T04:32:49.470Z,0.20
2023-02-14T04:35:16.511Z,1.13
2023-02-14T04:37:43.509Z,0.33
2023-02-14T04:40:11.191Z,0.60
2023-02-14T04:42:38.148Z,0.30
2023-02-14T04:45:05.310Z,0.53
2023-02-14T04:47:32.270Z,0.40
2023-02-14T04:49:59.249Z,0.40
2023-02-14T04:52:26.210Z,0.40
2023-02-14T04:54:53.282Z,0.40
2023-02-14T04:57:20.227Z,0.30
2023-02-14T04:59:47.086Z,0.40
2023-02-14T05:02:14.620Z,0.50
2023-02-14T05:04:41.799Z,0.30
2023-02-14T05:07:08.792Z,0.40
2023-02-14T05:09:35.759Z,0.43
2023-02-14T05:12:02.731Z,0.40
2023-02-14T05:14:32.725Z,0.67
2023-02-14T05:16:59.730Z,0.60
2023-02-14T05:19:26.682Z,0.50
2023-02-14T05:21:53.651Z,0.47
2023-02-14T05:24:20.669Z,0.40
2023-02-14T05:26:47.552Z,0.70
2023-02-14T05:29:14.554Z,0.70
2023-02-14T05:31:41.759Z,0.63
2023-02-14T05:34:08.923Z,0.37
2023-02-14T05:36:35.821Z,0.50
2023-02-14T05:39:02.859Z,0.50
2023-02-14T05:41:29.913Z,0.50
2023-02-14T05:43:56.856Z,0.40
2023-02-14T05:46:23.841Z,0.50
2023-02-14T05:48:50.935Z,0.70
2023-02-14T05:51:17.894Z,0.70
2023-02-14T05:53:44.889Z,0.90
2023-02-14T05:56:11.893Z,0.90
2023-02-14T05:58:38.811Z,0.80
2023-02-14T06:01:05.772Z,0.50
2023-02-14T06:03:32.769Z,0.80
2023-02-14T06:05:59.647Z,0.50
2023-02-14T06:08:26.644Z,0.63
2023-02-14T06:10:53.762Z,0.50
2023-02-14T06:13:20.690Z,0.60
2023-02-14T06:15:47.718Z,1.03
2023-02-14T06:18:14.862Z,0.97
2023-02-14T06:20:41.898Z,0.70
2023-02-14T06:23:08.941Z,0.70
2023-02-14T06:25:35.914Z,0.70
2023-02-14T06:28:03.021Z,0.73
2023-02-14T06:30:32.429Z,0.60
2023-02-14T06:32:59.828Z,0.60
2023-02-14T06:35:26.855Z,0.63
2023-02-14T06:37:53.854Z,0.60
2023-02-14T06:40:21.115Z,0.60
2023-02-14T06:42:48.065Z,0.50
2023-02-14T06:45:15.069Z,0.80
2023-02-14T06:47:42.218Z,0.50
2023-02-14T06:50:11.901Z,0.60
2023-02-14T06:52:39.540Z,1.00
2023-02-14T06:55:06.932Z,0.73
2023-02-14T06:57:33.917Z,1.00
2023-02-14T07:00:00.836Z,0.80
2023-02-14T07:02:27.939Z,1.10
2023-02-14T07:04:55.055Z,1.20
2023-02-14T07:07:22.056Z,0.90
2023-02-14T07:09:49.155Z,1.13
2023-02-14T07:12:16.155Z,1.10
2023-02-14T07:14:43.077Z,1.00
2023-02-14T07:17:12.199Z,0.83
2023-02-14T07:19:39.117Z,0.97
2023-02-14T07:22:06.075Z,1.17
2023-02-14T07:24:33.104Z,1.30
2023-02-14T07:27:00.160Z,1.50
2023-02-14T07:29:27.115Z,1.60
2023-02-14T07:31:54.321Z,1.37
2023-02-14T07:34:21.488Z,0.90
2023-02-14T07:36:48.532Z,1.40
2023-02-14T07:39:15.454Z,2.87
2023-02-14T07:41:42.545Z,4.40
2023-02-14T07:44:09.575Z,4.87
2023-02-14T07:46:36.727Z,4.97
2023-02-14T07:49:04.099Z,3.20
2023-02-14T07:51:31.360Z,3.50
2023-02-14T07:53:58.295Z,2.33
2023-02-14T07:56:25.346Z,2.40
2023-02-14T07:58:52.345Z,2.00
2023-02-14T08:01:19.487Z,1.97
2023-02-14T08:03:49.759Z,2.10
2023-02-14T08:06:18.224Z,2.80
2023-02-14T08:08:45.994Z,1.83
2023-02-14T08:11:33.384Z,1.40
2023-02-14T08:14:00.402Z,1.30
2023-02-14T08:16:27.368Z,1.33
2023-02-14T08:18:54.369Z,1.43
2023-02-14T08:21:21.348Z,1.70
2023-02-14T08:23:48.341Z,1.93
2023-02-14T08:26:15.980Z,2.07
2023-02-14T08:28:43.501Z,2.30
2023-02-14T08:31:11.099Z,2.20
2023-02-14T08:33:38.261Z,2.10
2023-02-14T08:36:05.577Z,2.30
2023-02-14T08:38:35.028Z,1.60
2023-02-14T08:41:05.241Z,1.20
2023-02-14T08:43:34.610Z,1.63
2023-02-14T08:46:02.209Z,1.53
2023-02-14T08:48:29.840Z,1.20
2023-02-14T08:50:56.934Z,1.10
2023-02-14T08:53:24.199Z,1.50
2023-02-14T08:55:51.254Z,1.30
2023-02-14T08:58:18.592Z,1.17
2023-02-14T09:00:45.706Z,1.20
2023-02-14T09:03:12.951Z,1.30
2023-02-14T09:05:40.080Z,1.10
2023-02-14T09:08:07.861Z,0.90
2023-02-14T09:10:37.663Z,1.07
2023-02-14T09:13:04.640Z,0.80
2023-02-14T09:15:31.761Z,1.13
2023-02-14T09:17:58.762Z,1.00
2023-02-14T09:20:26.277Z,1.00
2023-02-14T09:22:57.228Z,1.37
2023-02-14T09:25:24.280Z,1.23
2023-02-14T09:27:51.235Z,0.97
2023-02-14T09:30:18.327Z,1.10
2023-02-14T09:32:45.239Z,1.07
2023-02-14T09:35:30.562Z,1.30
2023-02-14T09:37:57.561Z,0.80
2023-02-14T09:40:25.826Z,0.60
2023-02-14T09:43:31.001Z,1.00
2023-02-14T09:46:02.473Z,1.60
2023-02-14T09:48:34.956Z,1.23
2023-02-14T09:51:06.478Z,1.40
2023-02-14T09:54:01.885Z,1.63
2023-02-14T09:56:37.334Z,1.20
2023-02-14T09:59:20.011Z,1.40
2023-02-14T10:01:54.974Z,0.83
2023-02-14T10:04:34.041Z,1.23
2023-02-14T10:07:26.598Z,1.10
2023-02-14T10:10:02.446Z,1.53
2023-02-14T10:12:53.787Z,0.90
2023-02-14T10:15:49.845Z,1.07
2023-02-14T10:18:29.244Z,1.10
2023-02-14T10:21:02.166Z,0.93
2023-02-14T10:23:41.004Z,1.20
2023-02-14T10:26:19.811Z,0.90
2023-02-14T10:28:49.931Z,1.20
2023-02-14T10:31:25.134Z,0.80
2023-02-14T10:33:57.268Z,0.93
2023-02-14T10:36:45.246Z,1.27
2023-02-14T10:39:27.607Z,2.07
2023-02-14T10:41:54.881Z,4.70
2023-02-14T10:44:22.160Z,5.67
2023-02-14T10:46:54.495Z,4.93
2023-02-14T10:49:54.165Z,4.03
2023-02-14T10:52:38.180Z,2.07
2023-02-14T10:55:31.429Z,1.37
2023-02-14T10:57:59.775Z,0.80
2023-02-14T11:00:29.172Z,12.17
2023-02-14T11:03:00.980Z,3.20
2023-02-14T11:05:33.762Z,0.90
2023-02-14T11:08:03.008Z,1.10
2023-02-14T11:10:36.117Z,0.70
2023-02-14T11:13:04.069Z,0.63
2023-02-14T11:15:36.650Z,0.60
2023-02-14T11:18:16.005Z,0.40
2023-02-14T11:20:43.385Z,0.67
2023-02-14T11:23:20.908Z,0.50
2023-02-14T11:25:52.377Z,0.60
2023-02-14T11:28:19.841Z,0.60
2023-02-14T11:30:48.377Z,0.73
2023-02-14T11:33:24.927Z,0.50
2023-02-14T11:35:53.347Z,0.80
2023-02-14T11:38:41.413Z,0.80
2023-02-14T11:41:15.441Z,0.80
2023-02-14T11:43:46.123Z,1.10
2023-02-14T11:46:15.260Z,0.80
2023-02-14T11:49:01.624Z,0.73
2023-02-14T11:51:38.132Z,0.50
2023-02-14T11:54:06.159Z,0.60
2023-02-14T11:56:48.107Z,0.60
2023-02-14T11:59:28.807Z,0.50
2023-02-14T12:01:59.024Z,0.60
2023-02-14T12:04:38.091Z,0.57
2023-02-14T12:07:22.451Z,0.88
2023-02-14T12:10:16.191Z,1.08
2023-02-14T12:13:00.257Z,0.40
2023-02-14T12:16:18.166Z,0.40
2023-02-14T12:18:56.378Z,0.43
2023-02-14T12:21:31.970Z,0.50
2023-02-14T12:24:31.273Z,0.43
2023-02-14T12:27:07.493Z,0.30
2023-02-14T12:29:50.831Z,0.40
2023-02-14T12:32:17.726Z,0.43
2023-02-14T12:34:44.888Z,0.40
2023-02-14T12:37:35.486Z,0.50
2023-02-14T12:40:19.033Z,1.13
2023-02-14T12:43:04.022Z,0.40
2023-02-14T12:45:55.449Z,0.43
2023-02-14T12:48:46.187Z,0.32
2023-02-14T12:51:30.044Z,0.47
2023-02-14T12:54:27.604Z,0.50
2023-02-14T12:57:00.446Z,0.40
2023-02-14T12:59:41.680Z,0.50
2023-02-14T13:02:35.956Z,0.50
2023-02-14T13:05:20.895Z,0.43
2023-02-14T13:08:06.455Z,0.40
2023-02-14T13:10:59.996Z,0.33
2023-02-14T13:14:03.827Z,0.43
2023-02-14T13:16:39.965Z,0.30
2023-02-14T13:19:33.650Z,0.30
2023-02-14T13:22:03.988Z,0.47
2023-02-14T13:24:42.468Z,0.53
2023-02-14T13:27:16.459Z,0.60
2023-02-14T13:29:54.468Z,0.70
2023-02-14T13:32:26.483Z,0.53
2023-02-14T13:34:54.135Z,0.60
2023-02-14T13:37:24.051Z,0.60
2023-02-14T13:39:57.360Z,0.50
2023-02-14T13:42:49.879Z,0.90
2023-02-14T13:45:34.832Z,0.63
2023-02-14T13:48:13.373Z,0.70
2023-02-14T13:50:59.182Z,0.67
2023-02-14T13:53:37.336Z,0.77
2023-02-14T13:56:25.828Z,0.60
2023-02-14T13:59:06.855Z,0.40
2023-02-14T14:01:42.366Z,0.50
2023-02-14T14:04:30.477Z,0.83
2023-02-14T14:07:00.645Z,0.47
2023-02-14T14:09:54.936Z,0.60
2023-02-14T14:12:28.005Z,0.60
2023-02-14T14:15:07.138Z,0.60
2023-02-14T14:17:37.415Z,0.70
2023-02-14T14:20:27.834Z,0.60
2023-02-14T14:22:57.414Z,0.70
2023-02-14T14:25:37.442Z,0.60
2023-02-14T14:28:11.969Z,0.70
2023-02-14T14:30:44.966Z,0.53
2023-02-14T14:33:17.477Z,0.50
2023-02-14T14:36:02.867Z,0.70
2023-02-14T14:38:31.322Z,0.60
2023-02-14T14:40:59.520Z,0.90
2023-02-14T14:43:39.527Z,0.80
2023-02-14T14:46:11.941Z,0.60
2023-02-14T14:48:43.028Z,0.60
2023-02-14T14:51:38.687Z,0.70
2023-02-14T14:54:18.527Z,0.60
2023-02-14T14:56:59.474Z,0.57
2023-02-14T14:59:31.175Z,0.50
2023-02-14T15:01:58.291Z,0.70
2023-02-14T15:04:28.965Z,0.60
2023-02-14T15:06:57.928Z,0.60
2023-02-14T15:09:32.452Z,0.57
2023-02-14T15:12:21.087Z,0.63
2023-02-14T15:14:54.553Z,0.50
2023-02-14T15:17:33.029Z,0.57
2023-02-14T15:20:08.483Z,0.57
2023-02-14T15:22:48.577Z,0.50
2023-02-14T15:25:26.614Z,0.57
2023-02-14T15:27:53.901Z,0.60
2023-02-14T15:30:29.241Z,0.60
2023-02-14T15:32:57.855Z,0.63
2023-02-14T15:35:30.818Z,0.40
2023-02-14T15:38:02.771Z,0.80
2023-02-14T15:40:32.986Z,0.53
2023-02-14T15:43:18.699Z,0.73
2023-02-14T15:45:50.385Z,0.80
2023-02-14T15:48:21.094Z,0.63
2023-02-14T15:50:53.494Z,0.73
2023-02-14T15:53:20.788Z,0.70
2023-02-14T15:55:50.522Z,0.80
2023-02-14T15:58:28.295Z,0.90
2023-02-14T16:00:56.248Z,1.03
2023-02-14T16:03:29.253Z,0.70
2023-02-14T16:05:56.342Z,0.60
2023-02-14T16:08:41.298Z,0.77
2023-02-14T16:11:28.331Z,0.60
2023-02-14T16:13:55.618Z,0.63
2023-02-14T16:16:22.696Z,0.80
2023-02-14T16:18:52.977Z,0.73
2023-02-14T16:21:29.017Z,0.60
2023-02-14T16:24:08.205Z,0.80
2023-02-14T16:26:43.665Z,0.70
2023-02-14T16:29:16.283Z,0.70
2023-02-14T16:32:14.829Z,1.10
2023-02-14T16:34:42.683Z,0.60
2023-02-14T16:37:22.480Z,0.60
2023-02-14T16:39:56.668Z,1.13
2023-02-14T16:42:24.085Z,0.53
2023-02-14T16:44:51.293Z,0.80
2023-02-14T16:47:20.405Z,0.60
2023-02-14T16:49:47.673Z,0.60
2023-02-14T16:52:18.567Z,0.80
2023-02-14T16:54:48.780Z,0.60
2023-02-14T16:57:23.483Z,0.93
2023-02-14T16:59:51.112Z,0.87
2023-02-14T17:02:19.221Z,1.10
2023-02-14T17:04:46.502Z,0.60
2023-02-14T17:07:15.801Z,0.63
2023-02-14T17:09:47.530Z,0.90
2023-02-14T17:12:19.758Z,0.87
2023-02-14T17:14:52.088Z,0.70
2023-02-14T17:17:20.003Z,0.67
2023-02-14T17:19:47.043Z,0.73
2023-02-14T17:22:14.924Z,1.00
2023-02-14T17:24:41.964Z,1.00
2023-02-14T17:27:09.132Z,1.80
2023-02-14T17:29:36.280Z,1.30
2023-02-14T17:32:03.487Z,0.90
2023-02-14T17:34:34.350Z,0.90
2023-02-14T17:37:03.036Z,1.20
2023-02-14T17:39:30.086Z,1.00
2023-02-14T17:41:57.239Z,0.70
2023-02-14T17:44:24.457Z,0.60
2023-02-14T17:46:53.425Z,0.57
2023-02-14T17:49:20.422Z,0.93
2023-02-14T17:51:47.349Z,1.50
2023-02-14T17:54:14.282Z,4.03
2023-02-14T17:56:41.203Z,2.20
2023-02-14T17:59:08.527Z,2.37
2023-02-14T18:01:36.469Z,1.20
2023-02-14T18:04:03.581Z,0.87
2023-02-14T18:06:31.847Z,1.40
2023-02-14T18:08:58.959Z,1.93
2023-02-14T18:11:28.251Z,2.30
2023-02-14T18:13:56.692Z,1.50
2023-02-14T18:16:25.004Z,1.80
2023-02-14T18:18:52.624Z,1.23
2023-02-14T18:21:24.628Z,1.90
2023-02-14T18:23:52.058Z,4.40
2023-02-14T18:26:19.293Z,3.10
2023-02-14T18:28:46.610Z,2.40
2023-02-14T18:31:16.066Z,3.20
2023-02-14T18:33:44.124Z,2.50
2023-02-14T18:36:13.884Z,1.90
2023-02-14T18:38:42.774Z,2.43
2023-02-14T18:41:13.024Z,2.43
2023-02-14T18:43:44.044Z,1.87
2023-02-14T18:46:16.904Z,1.87
2023-02-14T18:48:44.714Z,1.87
2023-02-14T18:51:17.655Z,2.23
2023-02-14T18:53:45.757Z,1.83
2023-02-14T18:56:17.492Z,1.93
2023-02-14T18:58:47.697Z,1.40
2023-02-14T19:01:17.605Z,1.00
2023-02-14T19:03:45.280Z,0.87
2023-02-14T19:06:12.602Z,1.63
2023-02-14T19:08:41.024Z,2.10
2023-02-14T19:11:32.847Z,2.20
2023-02-14T19:14:02.851Z,1.77
2023-02-14T19:16:33.386Z,1.70
2023-02-14T19:19:02.682Z,1.67
2023-02-14T19:21:34.016Z,2.00
2023-02-14T19:24:02.660Z,2.13
2023-02-14T19:26:37.774Z,2.50
2023-02-14T19:29:09.609Z,2.30
2023-02-14T19:31:42.261Z,2.20
2023-02-14T19:34:41.094Z,2.03
2023-02-14T19:37:08.125Z,1.77
2023-02-14T19:39:35.098Z,1.70
2023-02-14T19:42:02.408Z,1.63
2023-02-14T19:44:31.285Z,1.60
2023-02-14T19:47:01.889Z,1.80
2023-02-14T19:49:32.040Z,1.87
2023-02-14T19:51:59.877Z,2.10
2023-02-14T19:54:27.092Z,1.93
2023-02-14T19:56:56.353Z,1.83
2023-02-14T19:59:23.568Z,1.93
2023-02-14T20:01:53.605Z,1.60
2023-02-14T20:04:23.492Z,1.40
2023-02-14T20:06:54.739Z,1.60
2023-02-14T20:09:22.734Z,1.80
2023-02-14T20:11:55.356Z,1.77
2023-02-14T20:14:23.467Z,1.83
2023-02-14T20:16:51.681Z,1.80
2023-02-14T20:19:21.815Z,1.77
2023-02-14T20:21:50.522Z,1.57
2023-02-14T20:24:26.283Z,2.03
2023-02-14T20:26:56.643Z,1.90
2023-02-14T20:29:24.987Z,1.70
2023-02-14T20:31:54.639Z,1.80
2023-02-14T20:34:22.065Z,1.40
2023-02-14T20:36:53.241Z,1.53
2023-02-14T20:39:22.017Z,1.57
2023-02-14T20:41:50.364Z,1.20
2023-02-14T20:44:21.864Z,1.67
2023-02-14T20:46:53.981Z,1.80
2023-02-14T20:49:22.696Z,1.97
2023-02-14T20:51:50.931Z,1.20
2023-02-14T20:54:22.947Z,1.77
2023-02-14T20:56:51.382Z,1.70
2023-02-14T20:59:29.012Z,1.20
2023-02-14T21:01:57.605Z,1.50
2023-02-14T21:04:25.672Z,1.30
2023-02-14T21:06:57.995Z,1.10
2023-02-14T21:09:25.206Z,1.20
2023-02-14T21:11:54.028Z,1.10
2023-02-14T21:14:21.447Z,1.00
2023-02-14T21:16:48.359Z,1.00
2023-02-14T21:19:15.620Z,0.70
2023-02-14T21:21:42.771Z,0.80
2023-02-14T21:24:15.672Z,1.37
2023-02-14T21:26:43.845Z,0.93
2023-02-14T21:29:10.909Z,0.80
2023-02-14T21:31:38.785Z,0.90
2023-02-14T21:34:05.924Z,0.97
2023-02-14T21:36:36.128Z,1.00
2023-02-14T21:39:04.706Z,1.17
2023-02-14T21:41:32.285Z,1.13
2023-02-14T21:44:00.961Z,0.97
2023-02-14T21:46:31.385Z,0.90
2023-02-14T21:49:19.529Z,0.90
2023-02-14T21:51:47.489Z,1.03
2023-02-14T21:54:15.141Z,1.00
2023-02-14T21:56:43.230Z,0.83
2023-02-14T21:59:10.527Z,1.17
2023-02-14T22:01:39.660Z,1.40
2023-02-14T22:04:09.377Z,1.13
2023-02-14T22:06:38.919Z,0.93
2023-02-14T22:09:07.032Z,0.80
2023-02-14T22:11:34.458Z,0.80
2023-02-14T22:14:01.574Z,0.60
2023-02-14T22:16:28.609Z,0.80
2023-02-14T22:18:58.586Z,0.97
2023-02-14T22:21:26.828Z,0.77
2023-02-14T22:23:57.186Z,0.57
2023-02-14T22:26:26.875Z,0.90
2023-02-14T22:28:57.384Z,0.77
2023-02-14T22:31:25.891Z,0.90
2023-02-14T22:33:53.402Z,0.97
2023-02-14T22:36:20.846Z,0.70
2023-02-14T22:38:47.936Z,0.93
2023-02-14T22:41:18.371Z,0.50
2023-02-14T22:43:46.039Z,0.70
2023-02-14T22:46:18.195Z,0.80
2023-02-14T22:48:45.746Z,0.90
2023-02-14T22:51:18.412Z,0.83
2023-02-14T22:53:45.361Z,0.80
2023-02-14T22:56:15.765Z,0.60
2023-02-14T22:58:43.668Z,0.90
2023-02-14T23:01:19.793Z,0.70
2023-02-14T23:04:42.925Z,0.67
2023-02-14T23:07:12.883Z,0.50
2023-02-14T23:09:39.885Z,0.83
2023-02-14T23:12:26.843Z,0.70
2023-02-14T23:15:12.364Z,0.50
2023-02-14T23:17:58.922Z,0.60
2023-02-14T23:20:44.844Z,0.50
2023-02-14T23:23:11.776Z,0.60
2023-02-14T23:25:39.281Z,0.60
2023-02-14T23:28:06.222Z,0.40
2023-02-14T23:30:33.244Z,0.57
2023-02-14T23:33:00.362Z,0.53
2023-02-14T23:35:27.384Z,0.60
2023-02-14T23:37:54.491Z,0.50
2023-02-14T23:40:21.644Z,0.40
2023-02-14T23:42:48.724Z,0.40
2023-02-14T23:45:34.219Z,0.50
2023-02-14T23:48:05.334Z,0.50
2023-02-14T23:50:32.570Z,0.60
2023-02-14T23:53:00.203Z,0.47
2023-02-14T23:55:27.125Z,0.57
2023-02-14T23:57:54.138Z,0.57
